sensor_id;sensor_type;location;lat;lon;timestamp;P1;durP1;ratioP1;P2;durP2;ratioP2
49514;SDS011;35415;47.870;16.058;2023-04-03T00:01:28;1.98;;;1.50;;
49514;SDS011;35415;47.870;16.058;2023-04-03T00:03:57;2.55;;;1.48;;
49514;SDS011;35415;47.870;16.058;2023-04-03T00:06:27;4.00;;;1.77;;
49514;SDS011;35415;47.870;16.058;2023-04-03T00:08:55;2.33;;;1.70;;
49514;SDS011;35415;47.870;16.058;2023-04-03T00:11:28;1.52;;;1.42;;
49514;SDS011;35415;47.870;16.058;2023-04-03T00:13:55;2.45;;;1.58;;
49514;SDS011;35415;47.870;16.058;2023-04-03T00:16:26;2.60;;;1.60;;
49514;SDS011;35415;47.870;16.058;2023-04-03T00:18:53;2.05;;;1.45;;
49514;SDS011;35415;47.870;16.058;2023-04-03T00:21:23;2.10;;;1.90;;
49514;SDS011;35415;47.870;16.058;2023-04-03T00:23:51;3.65;;;1.60;;
49514;SDS011;35415;47.870;16.058;2023-04-03T00:26:21;3.40;;;1.75;;
49514;SDS011;35415;47.870;16.058;2023-04-03T00:28:48;1.45;;;1.35;;
49514;SDS011;35415;47.870;16.058;2023-04-03T00:31:16;2.22;;;1.50;;
49514;SDS011;35415;47.870;16.058;2023-04-03T00:33:43;2.28;;;1.88;;
49514;SDS011;35415;47.870;16.058;2023-04-03T00:36:11;2.72;;;2.05;;
49514;SDS011;35415;47.870;16.058;2023-04-03T00:38:41;2.03;;;1.50;;
49514;SDS011;35415;47.870;16.058;2023-04-03T00:41:09;2.72;;;1.83;;
49514;SDS011;35415;47.870;16.058;2023-04-03T00:43:36;2.72;;;2.00;;
49514;SDS011;35415;47.870;16.058;2023-04-03T00:46:04;3.85;;;1.73;;
49514;SDS011;35415;47.870;16.058;2023-04-03T00:48:34;3.35;;;1.85;;
49514;SDS011;35415;47.870;16.058;2023-04-03T00:51:09;2.70;;;1.70;;
49514;SDS011;35415;47.870;16.058;2023-04-03T00:53:43;2.53;;;1.40;;
49514;SDS011;35415;47.870;16.058;2023-04-03T00:56:14;3.03;;;1.50;;
49514;SDS011;35415;47.870;16.058;2023-04-03T00:58:47;1.48;;;1.30;;
49514;SDS011;35415;47.870;16.058;2023-04-03T01:01:19;2.58;;;1.48;;
49514;SDS011;35415;47.870;16.058;2023-04-03T01:03:50;1.90;;;1.75;;
49514;SDS011;35415;47.870;16.058;2023-04-03T01:06:20;4.68;;;2.30;;
49514;SDS011;35415;47.870;16.058;2023-04-03T01:08:55;2.15;;;1.60;;
49514;SDS011;35415;47.870;16.058;2023-04-03T01:11:25;2.88;;;1.70;;
49514;SDS011;35415;47.870;16.058;2023-04-03T01:13:53;3.35;;;1.83;;
49514;SDS011;35415;47.870;16.058;2023-04-03T01:16:20;2.72;;;1.50;;
49514;SDS011;35415;47.870;16.058;2023-04-03T01:18:48;4.93;;;1.70;;
49514;SDS011;35415;47.870;16.058;2023-04-03T01:21:25;3.00;;;1.75;;
49514;SDS011;35415;47.870;16.058;2023-04-03T01:24:24;3.00;;;1.75;;
49514;SDS011;35415;47.870;16.058;2023-04-03T01:26:59;1.90;;;1.58;;
49514;SDS011;35415;47.870;16.058;2023-04-03T01:29:31;1.63;;;1.52;;
49514;SDS011;35415;47.870;16.058;2023-04-03T01:32:00;2.20;;;1.55;;
49514;SDS011;35415;47.870;16.058;2023-04-03T01:34:35;2.33;;;1.60;;
49514;SDS011;35415;47.870;16.058;2023-04-03T01:37:02;1.98;;;1.80;;
49514;SDS011;35415;47.870;16.058;2023-04-03T01:39:30;3.83;;;1.58;;
49514;SDS011;35415;47.870;16.058;2023-04-03T01:41:57;2.35;;;1.67;;
49514;SDS011;35415;47.870;16.058;2023-04-03T01:44:25;1.90;;;1.60;;
49514;SDS011;35415;47.870;16.058;2023-04-03T01:46:53;2.15;;;1.65;;
49514;SDS011;35415;47.870;16.058;2023-04-03T01:49:22;2.13;;;1.70;;
49514;SDS011;35415;47.870;16.058;2023-04-03T01:51:49;3.20;;;1.80;;
49514;SDS011;35415;47.870;16.058;2023-04-03T01:54:16;2.92;;;2.05;;
49514;SDS011;35415;47.870;16.058;2023-04-03T01:56:44;3.22;;;1.50;;
49514;SDS011;35415;47.870;16.058;2023-04-03T01:59:12;1.83;;;1.60;;
49514;SDS011;35415;47.870;16.058;2023-04-03T02:01:42;3.28;;;1.85;;
49514;SDS011;35415;47.870;16.058;2023-04-03T02:04:11;3.28;;;2.00;;
49514;SDS011;35415;47.870;16.058;2023-04-03T02:06:42;3.20;;;1.83;;
49514;SDS011;35415;47.870;16.058;2023-04-03T02:09:11;2.53;;;1.42;;
49514;SDS011;35415;47.870;16.058;2023-04-03T02:11:38;2.58;;;1.90;;
49514;SDS011;35415;47.870;16.058;2023-04-03T02:14:06;1.80;;;1.55;;
49514;SDS011;35415;47.870;16.058;2023-04-03T02:16:34;2.85;;;1.77;;
49514;SDS011;35415;47.870;16.058;2023-04-03T02:19:02;2.92;;;1.90;;
49514;SDS011;35415;47.870;16.058;2023-04-03T02:21:29;3.67;;;2.20;;
49514;SDS011;35415;47.870;16.058;2023-04-03T02:23:58;2.97;;;2.00;;
49514;SDS011;35415;47.870;16.058;2023-04-03T02:26:26;3.33;;;1.73;;
49514;SDS011;35415;47.870;16.058;2023-04-03T02:28:57;2.63;;;1.73;;
49514;SDS011;35415;47.870;16.058;2023-04-03T02:31:25;1.98;;;1.67;;
49514;SDS011;35415;47.870;16.058;2023-04-03T02:33:53;3.25;;;2.17;;
49514;SDS011;35415;47.870;16.058;2023-04-03T02:36:20;3.97;;;1.90;;
49514;SDS011;35415;47.870;16.058;2023-04-03T02:38:48;2.88;;;2.13;;
49514;SDS011;35415;47.870;16.058;2023-04-03T02:41:18;3.70;;;1.85;;
49514;SDS011;35415;47.870;16.058;2023-04-03T02:43:46;2.58;;;1.73;;
49514;SDS011;35415;47.870;16.058;2023-04-03T02:46:13;1.70;;;1.60;;
49514;SDS011;35415;47.870;16.058;2023-04-03T02:48:53;2.53;;;1.77;;
49514;SDS011;35415;47.870;16.058;2023-04-03T02:51:20;2.83;;;1.83;;
49514;SDS011;35415;47.870;16.058;2023-04-03T02:53:49;2.67;;;1.77;;
49514;SDS011;35415;47.870;16.058;2023-04-03T02:56:18;2.17;;;1.70;;
49514;SDS011;35415;47.870;16.058;2023-04-03T02:58:46;3.58;;;1.65;;
49514;SDS011;35415;47.870;16.058;2023-04-03T03:01:14;2.50;;;1.90;;
49514;SDS011;35415;47.870;16.058;2023-04-03T03:03:42;2.55;;;1.75;;
49514;SDS011;35415;47.870;16.058;2023-04-03T03:06:10;2.83;;;1.85;;
49514;SDS011;35415;47.870;16.058;2023-04-03T03:08:40;4.97;;;2.40;;
49514;SDS011;35415;47.870;16.058;2023-04-03T03:11:08;3.58;;;2.20;;
49514;SDS011;35415;47.870;16.058;2023-04-03T03:13:38;2.60;;;1.88;;
49514;SDS011;35415;47.870;16.058;2023-04-03T03:16:06;2.38;;;1.60;;
49514;SDS011;35415;47.870;16.058;2023-04-03T03:18:35;3.35;;;1.40;;
49514;SDS011;35415;47.870;16.058;2023-04-03T03:21:03;3.25;;;1.80;;
49514;SDS011;35415;47.870;16.058;2023-04-03T03:23:31;3.55;;;2.17;;
49514;SDS011;35415;47.870;16.058;2023-04-03T03:26:00;2.60;;;1.73;;
49514;SDS011;35415;47.870;16.058;2023-04-03T03:28:29;9.10;;;2.60;;
49514;SDS011;35415;47.870;16.058;2023-04-03T03:31:02;4.22;;;2.30;;
49514;SDS011;35415;47.870;16.058;2023-04-03T03:33:30;2.95;;;1.98;;
49514;SDS011;35415;47.870;16.058;2023-04-03T03:35:58;2.80;;;1.90;;
49514;SDS011;35415;47.870;16.058;2023-04-03T03:38:29;2.45;;;2.13;;
49514;SDS011;35415;47.870;16.058;2023-04-03T03:40:59;2.85;;;1.90;;
49514;SDS011;35415;47.870;16.058;2023-04-03T03:43:27;6.18;;;3.10;;
49514;SDS011;35415;47.870;16.058;2023-04-03T03:45:55;3.00;;;2.58;;
49514;SDS011;35415;47.870;16.058;2023-04-03T03:48:24;2.08;;;1.88;;
49514;SDS011;35415;47.870;16.058;2023-04-03T03:50:52;5.68;;;4.10;;
49514;SDS011;35415;47.870;16.058;2023-04-03T03:53:19;4.40;;;2.10;;
49514;SDS011;35415;47.870;16.058;2023-04-03T03:55:47;3.03;;;2.13;;
49514;SDS011;35415;47.870;16.058;2023-04-03T03:58:15;3.40;;;1.92;;
49514;SDS011;35415;47.870;16.058;2023-04-03T04:00:42;2.58;;;1.80;;
49514;SDS011;35415;47.870;16.058;2023-04-03T04:03:10;2.33;;;1.65;;
49514;SDS011;35415;47.870;16.058;2023-04-03T04:05:39;2.83;;;1.98;;
49514;SDS011;35415;47.870;16.058;2023-04-03T04:08:08;2.65;;;2.00;;
49514;SDS011;35415;47.870;16.058;2023-04-03T04:10:37;2.22;;;1.83;;
49514;SDS011;35415;47.870;16.058;2023-04-03T04:13:05;3.10;;;1.75;;
49514;SDS011;35415;47.870;16.058;2023-04-03T04:15:32;2.50;;;1.85;;
49514;SDS011;35415;47.870;16.058;2023-04-03T04:18:00;3.22;;;2.20;;
49514;SDS011;35415;47.870;16.058;2023-04-03T04:20:27;2.95;;;1.70;;
49514;SDS011;35415;47.870;16.058;2023-04-03T04:22:56;2.45;;;1.90;;
49514;SDS011;35415;47.870;16.058;2023-04-03T04:25:24;2.75;;;2.08;;
49514;SDS011;35415;47.870;16.058;2023-04-03T04:27:51;3.55;;;2.00;;
49514;SDS011;35415;47.870;16.058;2023-04-03T04:30:20;3.72;;;2.00;;
49514;SDS011;35415;47.870;16.058;2023-04-03T04:32:48;4.65;;;1.83;;
49514;SDS011;35415;47.870;16.058;2023-04-03T04:35:15;2.78;;;2.20;;
49514;SDS011;35415;47.870;16.058;2023-04-03T04:37:43;6.75;;;2.42;;
49514;SDS011;35415;47.870;16.058;2023-04-03T04:40:15;5.10;;;2.40;;
49514;SDS011;35415;47.870;16.058;2023-04-03T04:42:43;2.25;;;1.90;;
49514;SDS011;35415;47.870;16.058;2023-04-03T04:45:11;2.78;;;1.88;;
49514;SDS011;35415;47.870;16.058;2023-04-03T04:47:38;3.30;;;1.85;;
49514;SDS011;35415;47.870;16.058;2023-04-03T04:50:06;3.08;;;2.22;;
49514;SDS011;35415;47.870;16.058;2023-04-03T04:52:34;2.88;;;1.90;;
49514;SDS011;35415;47.870;16.058;2023-04-03T04:55:05;4.05;;;2.45;;
49514;SDS011;35415;47.870;16.058;2023-04-03T04:57:34;3.40;;;2.22;;
49514;SDS011;35415;47.870;16.058;2023-04-03T05:00:04;3.05;;;2.20;;
49514;SDS011;35415;47.870;16.058;2023-04-03T05:02:32;3.20;;;2.10;;
49514;SDS011;35415;47.870;16.058;2023-04-03T05:05:00;3.22;;;1.90;;
49514;SDS011;35415;47.870;16.058;2023-04-03T05:07:32;3.28;;;2.10;;
49514;SDS011;35415;47.870;16.058;2023-04-03T05:10:07;3.10;;;2.20;;
49514;SDS011;35415;47.870;16.058;2023-04-03T05:12:38;3.00;;;1.90;;
49514;SDS011;35415;47.870;16.058;2023-04-03T05:15:08;3.55;;;1.95;;
49514;SDS011;35415;47.870;16.058;2023-04-03T05:17:39;2.63;;;1.92;;
49514;SDS011;35415;47.870;16.058;2023-04-03T05:20:09;4.22;;;2.20;;
49514;SDS011;35415;47.870;16.058;2023-04-03T05:22:37;3.85;;;2.40;;
49514;SDS011;35415;47.870;16.058;2023-04-03T05:25:08;3.22;;;1.98;;
49514;SDS011;35415;47.870;16.058;2023-04-03T05:27:38;3.55;;;1.95;;
49514;SDS011;35415;47.870;16.058;2023-04-03T05:30:07;3.60;;;2.38;;
49514;SDS011;35415;47.870;16.058;2023-04-03T05:32:38;3.63;;;2.10;;
49514;SDS011;35415;47.870;16.058;2023-04-03T05:35:06;3.88;;;1.95;;
49514;SDS011;35415;47.870;16.058;2023-04-03T05:37:36;2.80;;;1.90;;
49514;SDS011;35415;47.870;16.058;2023-04-03T05:40:05;6.65;;;2.20;;
49514;SDS011;35415;47.870;16.058;2023-04-03T05:42:39;4.35;;;2.58;;
49514;SDS011;35415;47.870;16.058;2023-04-03T05:45:06;3.33;;;1.90;;
49514;SDS011;35415;47.870;16.058;2023-04-03T05:47:34;4.75;;;2.40;;
49514;SDS011;35415;47.870;16.058;2023-04-03T05:50:04;2.70;;;2.05;;
49514;SDS011;35415;47.870;16.058;2023-04-03T05:52:33;3.78;;;2.70;;
49514;SDS011;35415;47.870;16.058;2023-04-03T05:55:03;6.30;;;2.70;;
49514;SDS011;35415;47.870;16.058;2023-04-03T05:57:31;4.72;;;2.70;;
49514;SDS011;35415;47.870;16.058;2023-04-03T06:00:00;4.05;;;2.50;;
49514;SDS011;35415;47.870;16.058;2023-04-03T06:02:28;3.70;;;2.03;;
49514;SDS011;35415;47.870;16.058;2023-04-03T06:04:57;4.68;;;2.47;;
49514;SDS011;35415;47.870;16.058;2023-04-03T06:07:24;4.47;;;2.35;;
49514;SDS011;35415;47.870;16.058;2023-04-03T06:09:54;3.30;;;1.90;;
49514;SDS011;35415;47.870;16.058;2023-04-03T06:12:25;3.38;;;2.25;;
49514;SDS011;35415;47.870;16.058;2023-04-03T06:14:54;3.10;;;2.13;;
49514;SDS011;35415;47.870;16.058;2023-04-03T06:17:23;6.78;;;3.22;;
49514;SDS011;35415;47.870;16.058;2023-04-03T06:19:51;4.65;;;2.65;;
49514;SDS011;35415;47.870;16.058;2023-04-03T06:22:21;5.80;;;2.83;;
49514;SDS011;35415;47.870;16.058;2023-04-03T06:24:50;6.38;;;3.33;;
49514;SDS011;35415;47.870;16.058;2023-04-03T06:27:19;9.57;;;2.83;;
49514;SDS011;35415;47.870;16.058;2023-04-03T06:29:49;10.23;;;2.88;;
49514;SDS011;35415;47.870;16.058;2023-04-03T06:32:17;3.63;;;2.45;;
49514;SDS011;35415;47.870;16.058;2023-04-03T06:34:46;3.63;;;2.17;;
49514;SDS011;35415;47.870;16.058;2023-04-03T06:37:16;3.05;;;2.42;;
49514;SDS011;35415;47.870;16.058;2023-04-03T06:39:46;2.80;;;1.80;;
49514;SDS011;35415;47.870;16.058;2023-04-03T06:42:15;5.40;;;2.50;;
49514;SDS011;35415;47.870;16.058;2023-04-03T06:44:43;4.53;;;2.58;;
49514;SDS011;35415;47.870;16.058;2023-04-03T06:47:10;7.72;;;2.28;;
49514;SDS011;35415;47.870;16.058;2023-04-03T06:49:39;7.90;;;2.38;;
49514;SDS011;35415;47.870;16.058;2023-04-03T06:52:10;2.45;;;1.95;;
49514;SDS011;35415;47.870;16.058;2023-04-03T06:54:39;3.00;;;2.00;;
49514;SDS011;35415;47.870;16.058;2023-04-03T06:57:06;3.63;;;2.65;;
49514;SDS011;35415;47.870;16.058;2023-04-03T06:59:34;4.30;;;2.00;;
49514;SDS011;35415;47.870;16.058;2023-04-03T07:02:02;3.88;;;2.70;;
49514;SDS011;35415;47.870;16.058;2023-04-03T07:04:29;3.67;;;2.30;;
49514;SDS011;35415;47.870;16.058;2023-04-03T07:06:57;5.80;;;2.50;;
49514;SDS011;35415;47.870;16.058;2023-04-03T07:09:28;5.25;;;2.38;;
49514;SDS011;35415;47.870;16.058;2023-04-03T07:11:55;3.05;;;2.38;;
49514;SDS011;35415;47.870;16.058;2023-04-03T07:14:25;5.53;;;2.25;;
49514;SDS011;35415;47.870;16.058;2023-04-03T07:16:53;4.20;;;2.35;;
49514;SDS011;35415;47.870;16.058;2023-04-03T07:19:21;4.68;;;2.28;;
49514;SDS011;35415;47.870;16.058;2023-04-03T07:21:49;2.67;;;2.20;;
49514;SDS011;35415;47.870;16.058;2023-04-03T07:24:17;4.80;;;2.50;;
49514;SDS011;35415;47.870;16.058;2023-04-03T07:26:48;5.85;;;3.38;;
49514;SDS011;35415;47.870;16.058;2023-04-03T07:29:16;6.25;;;3.42;;
49514;SDS011;35415;47.870;16.058;2023-04-03T07:31:45;5.35;;;3.00;;
49514;SDS011;35415;47.870;16.058;2023-04-03T07:34:15;4.43;;;2.80;;
49514;SDS011;35415;47.870;16.058;2023-04-03T07:36:42;3.40;;;2.50;;
49514;SDS011;35415;47.870;16.058;2023-04-03T07:39:10;4.43;;;2.35;;
49514;SDS011;35415;47.870;16.058;2023-04-03T07:41:37;3.10;;;2.78;;
49514;SDS011;35415;47.870;16.058;2023-04-03T07:44:06;4.25;;;2.50;;
49514;SDS011;35415;47.870;16.058;2023-04-03T07:46:36;4.47;;;2.47;;
49514;SDS011;35415;47.870;16.058;2023-04-03T07:49:03;2.88;;;2.40;;
49514;SDS011;35415;47.870;16.058;2023-04-03T07:51:31;2.83;;;2.42;;
49514;SDS011;35415;47.870;16.058;2023-04-03T07:53:58;3.50;;;2.33;;
49514;SDS011;35415;47.870;16.058;2023-04-03T07:56:25;4.55;;;2.60;;
49514;SDS011;35415;47.870;16.058;2023-04-03T07:58:52;3.35;;;2.38;;
49514;SDS011;35415;47.870;16.058;2023-04-03T08:01:23;4.35;;;2.45;;
49514;SDS011;35415;47.870;16.058;2023-04-03T08:03:50;5.47;;;2.42;;
49514;SDS011;35415;47.870;16.058;2023-04-03T08:06:17;4.68;;;2.42;;
49514;SDS011;35415;47.870;16.058;2023-04-03T08:08:45;3.13;;;2.30;;
49514;SDS011;35415;47.870;16.058;2023-04-03T08:11:12;4.95;;;2.25;;
49514;SDS011;35415;47.870;16.058;2023-04-03T08:13:40;3.92;;;2.15;;
49514;SDS011;35415;47.870;16.058;2023-04-03T08:16:09;4.15;;;2.38;;
49514;SDS011;35415;47.870;16.058;2023-04-03T08:18:39;3.90;;;2.20;;
49514;SDS011;35415;47.870;16.058;2023-04-03T08:21:06;5.10;;;2.63;;
49514;SDS011;35415;47.870;16.058;2023-04-03T08:23:34;3.30;;;2.30;;
49514;SDS011;35415;47.870;16.058;2023-04-03T08:26:05;4.32;;;2.50;;
49514;SDS011;35415;47.870;16.058;2023-04-03T08:28:34;3.97;;;2.10;;
49514;SDS011;35415;47.870;16.058;2023-04-03T08:31:05;4.30;;;2.28;;
49514;SDS011;35415;47.870;16.058;2023-04-03T08:33:33;3.47;;;2.03;;
49514;SDS011;35415;47.870;16.058;2023-04-03T08:36:15;3.85;;;2.38;;
49514;SDS011;35415;47.870;16.058;2023-04-03T08:38:47;3.55;;;2.08;;
49514;SDS011;35415;47.870;16.058;2023-04-03T08:41:16;3.53;;;2.58;;
49514;SDS011;35415;47.870;16.058;2023-04-03T08:44:03;7.30;;;2.40;;
49514;SDS011;35415;47.870;16.058;2023-04-03T08:46:44;6.05;;;2.20;;
49514;SDS011;35415;47.870;16.058;2023-04-03T08:49:23;2.97;;;1.90;;
49514;SDS011;35415;47.870;16.058;2023-04-03T08:51:56;3.20;;;2.15;;
49514;SDS011;35415;47.870;16.058;2023-04-03T08:54:29;3.03;;;2.22;;
49514;SDS011;35415;47.870;16.058;2023-04-03T08:57:02;2.83;;;1.80;;
49514;SDS011;35415;47.870;16.058;2023-04-03T08:59:33;2.67;;;2.15;;
49514;SDS011;35415;47.870;16.058;2023-04-03T09:02:04;2.67;;;1.92;;
49514;SDS011;35415;47.870;16.058;2023-04-03T09:04:47;2.85;;;1.73;;
49514;SDS011;35415;47.870;16.058;2023-04-03T09:07:18;2.97;;;2.03;;
49514;SDS011;35415;47.870;16.058;2023-04-03T09:09:55;4.53;;;1.83;;
49514;SDS011;35415;47.870;16.058;2023-04-03T09:12:27;3.28;;;1.85;;
49514;SDS011;35415;47.870;16.058;2023-04-03T09:17:35;1.85;;;1.60;;
49514;SDS011;35415;47.870;16.058;2023-04-03T09:20:13;3.65;;;1.92;;
49514;SDS011;35415;47.870;16.058;2023-04-03T09:22:48;2.55;;;2.05;;
49514;SDS011;35415;47.870;16.058;2023-04-03T09:25:18;3.03;;;1.73;;
49514;SDS011;35415;47.870;16.058;2023-04-03T09:27:48;3.65;;;2.05;;
49514;SDS011;35415;47.870;16.058;2023-04-03T09:30:17;3.47;;;1.85;;
49514;SDS011;35415;47.870;16.058;2023-04-03T09:32:47;2.95;;;1.80;;
49514;SDS011;35415;47.870;16.058;2023-04-03T09:35:19;4.15;;;2.00;;
49514;SDS011;35415;47.870;16.058;2023-04-03T09:37:51;4.30;;;1.73;;
49514;SDS011;35415;47.870;16.058;2023-04-03T09:40:36;3.05;;;1.85;;
49514;SDS011;35415;47.870;16.058;2023-04-03T09:43:22;2.70;;;1.70;;
49514;SDS011;35415;47.870;16.058;2023-04-03T09:46:24;5.03;;;2.20;;
49514;SDS011;35415;47.870;16.058;2023-04-03T09:48:55;5.70;;;1.67;;
49514;SDS011;35415;47.870;16.058;2023-04-03T09:51:26;3.45;;;1.73;;
49514;SDS011;35415;47.870;16.058;2023-04-03T09:53:56;3.22;;;1.85;;
49514;SDS011;35415;47.870;16.058;2023-04-03T09:56:27;4.50;;;2.55;;
49514;SDS011;35415;47.870;16.058;2023-04-03T09:59:12;4.75;;;1.65;;
49514;SDS011;35415;47.870;16.058;2023-04-03T10:01:42;2.70;;;1.70;;
49514;SDS011;35415;47.870;16.058;2023-04-03T10:04:23;1.88;;;1.48;;
49514;SDS011;35415;47.870;16.058;2023-04-03T10:07:02;2.92;;;1.60;;
49514;SDS011;35415;47.870;16.058;2023-04-03T10:09:33;2.92;;;1.65;;
49514;SDS011;35415;47.870;16.058;2023-04-03T10:12:02;3.17;;;1.90;;
49514;SDS011;35415;47.870;16.058;2023-04-03T10:14:32;2.97;;;1.65;;
49514;SDS011;35415;47.870;16.058;2023-04-03T10:17:09;2.42;;;1.40;;
49514;SDS011;35415;47.870;16.058;2023-04-03T10:19:46;1.70;;;1.40;;
49514;SDS011;35415;47.870;16.058;2023-04-03T10:22:22;5.78;;;1.83;;
49514;SDS011;35415;47.870;16.058;2023-04-03T10:25:03;3.58;;;1.58;;
49514;SDS011;35415;47.870;16.058;2023-04-03T10:27:42;3.10;;;1.20;;
49514;SDS011;35415;47.870;16.058;2023-04-03T10:30:26;3.42;;;1.60;;
49514;SDS011;35415;47.870;16.058;2023-04-03T10:33:08;2.40;;;1.30;;
49514;SDS011;35415;47.870;16.058;2023-04-03T10:35:48;2.83;;;1.77;;
49514;SDS011;35415;47.870;16.058;2023-04-03T10:38:31;2.70;;;1.58;;
49514;SDS011;35415;47.870;16.058;2023-04-03T10:41:10;5.55;;;1.88;;
49514;SDS011;35415;47.870;16.058;2023-04-03T10:43:44;2.40;;;1.60;;
49514;SDS011;35415;47.870;16.058;2023-04-03T10:46:23;2.63;;;1.88;;
49514;SDS011;35415;47.870;16.058;2023-04-03T10:49:01;1.85;;;1.50;;
49514;SDS011;35415;47.870;16.058;2023-04-03T10:51:44;2.70;;;1.67;;
49514;SDS011;35415;47.870;16.058;2023-04-03T10:54:16;3.40;;;1.67;;
49514;SDS011;35415;47.870;16.058;2023-04-03T10:56:51;3.90;;;2.00;;
49514;SDS011;35415;47.870;16.058;2023-04-03T10:59:23;1.85;;;1.45;;
49514;SDS011;35415;47.870;16.058;2023-04-03T11:01:59;2.05;;;1.48;;
49514;SDS011;35415;47.870;16.058;2023-04-03T11:04:31;2.45;;;1.90;;
49514;SDS011;35415;47.870;16.058;2023-04-03T11:07:17;2.40;;;1.92;;
49514;SDS011;35415;47.870;16.058;2023-04-03T11:09:48;5.53;;;1.83;;
49514;SDS011;35415;47.870;16.058;2023-04-03T11:12:23;2.72;;;1.80;;
49514;SDS011;35415;47.870;16.058;2023-04-03T11:14:55;3.30;;;1.63;;
49514;SDS011;35415;47.870;16.058;2023-04-03T11:17:28;2.85;;;1.40;;
49514;SDS011;35415;47.870;16.058;2023-04-03T11:20:06;1.95;;;1.70;;
49514;SDS011;35415;47.870;16.058;2023-04-03T11:22:42;2.33;;;1.50;;
49514;SDS011;35415;47.870;16.058;2023-04-03T11:25:15;1.60;;;1.17;;
49514;SDS011;35415;47.870;16.058;2023-04-03T11:27:51;3.40;;;1.50;;
49514;SDS011;35415;47.870;16.058;2023-04-03T11:30:23;2.88;;;1.67;;
49514;SDS011;35415;47.870;16.058;2023-04-03T11:36:12;2.80;;;1.65;;
49514;SDS011;35415;47.870;16.058;2023-04-03T11:38:49;2.20;;;1.50;;
49514;SDS011;35415;47.870;16.058;2023-04-03T11:41:24;3.20;;;1.48;;
49514;SDS011;35415;47.870;16.058;2023-04-03T11:43:58;3.53;;;1.60;;
49514;SDS011;35415;47.870;16.058;2023-04-03T11:55:41;3.38;;;1.17;;
49514;SDS011;35415;47.870;16.058;2023-04-03T11:58:12;2.90;;;1.60;;
49514;SDS011;35415;47.870;16.058;2023-04-03T12:00:58;3.38;;;1.45;;
49514;SDS011;35415;47.870;16.058;2023-04-03T12:12:37;2.35;;;1.23;;
49514;SDS011;35415;47.870;16.058;2023-04-03T12:15:22;1.77;;;1.25;;
49514;SDS011;35415;47.870;16.058;2023-04-03T12:17:54;2.80;;;1.75;;
49514;SDS011;35415;47.870;16.058;2023-04-03T12:23:28;5.15;;;1.60;;
49514;SDS011;35415;47.870;16.058;2023-04-03T12:26:01;4.00;;;1.38;;
49514;SDS011;35415;47.870;16.058;2023-04-03T12:28:47;5.38;;;2.08;;
49514;SDS011;35415;47.870;16.058;2023-04-03T12:31:16;2.20;;;1.48;;
49514;SDS011;35415;47.870;16.058;2023-04-03T12:33:57;3.00;;;1.60;;
49514;SDS011;35415;47.870;16.058;2023-04-03T12:36:35;4.50;;;1.67;;
49514;SDS011;35415;47.870;16.058;2023-04-03T12:39:14;4.50;;;1.70;;
49514;SDS011;35415;47.870;16.058;2023-04-03T12:42:03;3.97;;;1.83;;
49514;SDS011;35415;47.870;16.058;2023-04-03T12:44:46;4.15;;;1.67;;
49514;SDS011;35415;47.870;16.058;2023-04-03T12:47:26;1.65;;;1.40;;
49514;SDS011;35415;47.870;16.058;2023-04-03T12:50:00;2.38;;;1.65;;
49514;SDS011;35415;47.870;16.058;2023-04-03T12:52:32;3.15;;;1.70;;
49514;SDS011;35415;47.870;16.058;2023-04-03T12:55:11;5.72;;;1.35;;
49514;SDS011;35415;47.870;16.058;2023-04-03T12:57:45;2.58;;;1.40;;
49514;SDS011;35415;47.870;16.058;2023-04-03T13:00:25;3.40;;;1.50;;
49514;SDS011;35415;47.870;16.058;2023-04-03T13:02:56;1.73;;;1.48;;
49514;SDS011;35415;47.870;16.058;2023-04-03T13:05:25;4.20;;;1.60;;
49514;SDS011;35415;47.870;16.058;2023-04-03T13:07:57;3.30;;;2.00;;
49514;SDS011;35415;47.870;16.058;2023-04-03T13:10:28;2.45;;;1.75;;
49514;SDS011;35415;47.870;16.058;2023-04-03T13:12:57;2.67;;;1.58;;
49514;SDS011;35415;47.870;16.058;2023-04-03T13:15:26;2.92;;;1.67;;
49514;SDS011;35415;47.870;16.058;2023-04-03T13:17:56;1.98;;;1.55;;
49514;SDS011;35415;47.870;16.058;2023-04-03T13:20:28;3.67;;;2.22;;
49514;SDS011;35415;47.870;16.058;2023-04-03T13:23:00;3.13;;;1.40;;
49514;SDS011;35415;47.870;16.058;2023-04-03T13:25:30;4.15;;;1.60;;
49514;SDS011;35415;47.870;16.058;2023-04-03T13:28:00;2.38;;;1.55;;
49514;SDS011;35415;47.870;16.058;2023-04-03T13:30:31;2.33;;;1.63;;
49514;SDS011;35415;47.870;16.058;2023-04-03T13:33:02;1.70;;;1.30;;
49514;SDS011;35415;47.870;16.058;2023-04-03T13:35:35;5.53;;;1.50;;
49514;SDS011;35415;47.870;16.058;2023-04-03T13:38:05;2.33;;;1.70;;
49514;SDS011;35415;47.870;16.058;2023-04-03T13:40:49;2.88;;;1.50;;
49514;SDS011;35415;47.870;16.058;2023-04-03T13:43:19;1.88;;;1.67;;
49514;SDS011;35415;47.870;16.058;2023-04-03T13:45:55;2.95;;;1.80;;
49514;SDS011;35415;47.870;16.058;2023-04-03T13:48:25;4.18;;;1.30;;
49514;SDS011;35415;47.870;16.058;2023-04-03T13:50:57;3.58;;;1.85;;
49514;SDS011;35415;47.870;16.058;2023-04-03T13:53:26;2.05;;;1.10;;
49514;SDS011;35415;47.870;16.058;2023-04-03T13:55:57;2.08;;;1.55;;
49514;SDS011;35415;47.870;16.058;2023-04-03T13:58:31;5.57;;;1.40;;
49514;SDS011;35415;47.870;16.058;2023-04-03T14:01:01;5.68;;;2.00;;
49514;SDS011;35415;47.870;16.058;2023-04-03T14:03:38;1.67;;;1.40;;
49514;SDS011;35415;47.870;16.058;2023-04-03T14:06:14;2.28;;;1.42;;
49514;SDS011;35415;47.870;16.058;2023-04-03T14:08:43;4.43;;;1.67;;
49514;SDS011;35415;47.870;16.058;2023-04-03T14:11:15;3.00;;;1.67;;
49514;SDS011;35415;47.870;16.058;2023-04-03T14:13:46;2.30;;;1.70;;
49514;SDS011;35415;47.870;16.058;2023-04-03T14:16:16;2.22;;;1.60;;
49514;SDS011;35415;47.870;16.058;2023-04-03T14:18:47;2.17;;;1.40;;
49514;SDS011;35415;47.870;16.058;2023-04-03T14:21:18;3.22;;;1.80;;
49514;SDS011;35415;47.870;16.058;2023-04-03T14:23:46;2.55;;;1.52;;
49514;SDS011;35415;47.870;16.058;2023-04-03T14:26:15;3.30;;;1.55;;
49514;SDS011;35415;47.870;16.058;2023-04-03T14:28:46;2.88;;;1.83;;
49514;SDS011;35415;47.870;16.058;2023-04-03T14:31:15;2.47;;;1.52;;
49514;SDS011;35415;47.870;16.058;2023-04-03T14:33:47;2.38;;;1.58;;
49514;SDS011;35415;47.870;16.058;2023-04-03T14:36:44;3.08;;;1.60;;
49514;SDS011;35415;47.870;16.058;2023-04-03T14:39:15;4.50;;;1.95;;
49514;SDS011;35415;47.870;16.058;2023-04-03T14:41:44;4.75;;;1.58;;
49514;SDS011;35415;47.870;16.058;2023-04-03T14:44:12;1.45;;;1.33;;
49514;SDS011;35415;47.870;16.058;2023-04-03T14:46:43;1.98;;;1.38;;
49514;SDS011;35415;47.870;16.058;2023-04-03T14:49:12;2.80;;;1.73;;
49514;SDS011;35415;47.870;16.058;2023-04-03T14:51:44;2.92;;;1.40;;
49514;SDS011;35415;47.870;16.058;2023-04-03T14:54:13;5.65;;;2.10;;
49514;SDS011;35415;47.870;16.058;2023-04-03T14:56:44;3.55;;;1.73;;
49514;SDS011;35415;47.870;16.058;2023-04-03T14:59:13;3.25;;;1.83;;
49514;SDS011;35415;47.870;16.058;2023-04-03T15:01:42;4.18;;;1.35;;
49514;SDS011;35415;47.870;16.058;2023-04-03T15:04:19;3.58;;;1.58;;
49514;SDS011;35415;47.870;16.058;2023-04-03T15:06:49;2.53;;;1.65;;
49514;SDS011;35415;47.870;16.058;2023-04-03T15:09:19;2.30;;;1.85;;
49514;SDS011;35415;47.870;16.058;2023-04-03T15:11:48;2.78;;;1.55;;
49514;SDS011;35415;47.870;16.058;2023-04-03T15:14:17;2.10;;;1.60;;
49514;SDS011;35415;47.870;16.058;2023-04-03T15:16:45;2.88;;;1.60;;
49514;SDS011;35415;47.870;16.058;2023-04-03T15:19:12;5.68;;;1.58;;
49514;SDS011;35415;47.870;16.058;2023-04-03T15:21:40;2.17;;;1.30;;
49514;SDS011;35415;47.870;16.058;2023-04-03T15:24:10;4.60;;;1.52;;